Time;durP1;ratioP1;P1;durP2;ratioP2;P2;SDS_P1;SDS_P2;PMS_P1;PMS_P2;Temp;Humidity;BMP_temperature;BMP_pressure;BME280_temperature;BME280_humidity;BME280_pressure;Samples;Min_cycle;Max_cycle;Signal;HPM_P1;HPM_P2
2023/03/14 00:01:24;;;;;;;1.20;1.20;;;9.20;99.90;;;;;;4961165;28;20412;-82
2023/03/14 00:03:53;;;;;;;18.55;1.40;;;9.20;99.90;;;;;;4966818;28;20511;-81
2023/03/14 00:06:19;;;;;;;0.68;0.68;;;9.30;99.90;;;;;;4933174;28;20047;-82
2023/03/14 00:08:45;;;;;;;2.28;2.17;;;9.30;99.90;;;;;;4929679;28;20134;-82
2023/03/14 00:11:17;;;;;;;0.50;0.50;;;9.30;99.90;;;;;;4969863;28;20051;-81
2023/03/14 00:13:42;;;;;;;0.50;0.50;;;9.30;99.90;;;;;;4945934;28;20042;-82
2023/03/14 00:16:11;;;;;;;0.88;0.88;;;9.30;99.90;;;;;;4977672;28;20047;-83
2023/03/14 00:18:38;;;;;;;0.40;0.40;;;9.30;99.90;;;;;;4965678;28;20058;-84
2023/03/14 00:21:04;;;;;;;;;;;9.40;99.90;;;;;;4964274;28;20039;-83
2023/03/14 00:23:31;;;;;;;3.10;2.35;;;9.40;99.90;;;;;;4965172;28;20348;-82
2023/03/14 00:26:04;;;;;;;0.60;0.60;;;9.40;99.90;;;;;;4945579;28;20055;-84
2023/03/14 00:28:30;;;;;;;0.45;0.45;;;9.50;99.90;;;;;;4962503;28;20054;-84
2023/03/14 00:30:56;;;;;;;0.60;0.60;;;9.60;99.90;;;;;;4969000;28;20068;-82
2023/03/14 00:33:23;;;;;;;0.80;0.80;;;9.70;99.90;;;;;;4945493;28;20088;-81
2023/03/14 00:36:00;;;;;;;1.40;1.40;;;9.60;99.90;;;;;;4946026;28;20123;-82
2023/03/14 00:38:26;;;;;;;0.60;0.60;;;9.60;99.90;;;;;;4962222;28;20108;-83
2023/03/14 00:40:53;;;;;;;0.90;0.85;;;9.60;99.90;;;;;;4945529;28;20101;-80
2023/03/14 00:43:21;;;;;;;0.60;0.60;;;9.60;99.90;;;;;;4965857;28;20035;-80
2023/03/14 00:45:48;;;;;;;0.93;0.93;;;9.60;99.90;;;;;;4947122;28;20098;-82
2023/03/14 00:48:13;;;;;;;1.20;1.17;;;9.60;99.90;;;;;;4948297;28;20400;-83
2023/03/14 00:50:39;;;;;;;0.40;0.40;;;9.70;99.90;;;;;;4944471;28;20043;-81
2023/03/14 00:53:05;;;;;;;0.50;0.50;;;9.70;99.90;;;;;;4945051;28;20162;-82
2023/03/14 00:55:31;;;;;;;0.50;0.50;;;9.60;99.90;;;;;;4961291;28;20058;-84
2023/03/14 00:57:56;;;;;;;1.58;1.05;;;9.60;99.90;;;;;;4948181;28;20099;-82
2023/03/14 01:00:23;;;;;;;0.70;0.70;;;9.60;99.90;;;;;;4916139;28;20051;-84
2023/03/14 01:02:49;;;;;;;0.80;0.75;;;9.60;99.90;;;;;;4964847;28;20046;-81
2023/03/14 01:05:16;;;;;;;0.50;0.50;;;9.60;99.90;;;;;;4945426;28;20108;-81
2023/03/14 01:07:42;;;;;;;1.75;1.15;;;9.60;99.90;;;;;;4961127;28;20122;-82
2023/03/14 01:10:08;;;;;;;1.20;1.20;;;9.50;99.90;;;;;;4946677;28;20134;-81
2023/03/14 01:12:34;;;;;;;0.43;0.43;;;9.60;99.90;;;;;;4957973;28;20135;-81
2023/03/14 01:15:00;;;;;;;3.42;2.60;;;9.70;99.90;;;;;;4947225;28;20177;-83
2023/03/14 01:17:27;;;;;;;0.55;0.50;;;9.60;99.90;;;;;;4962546;28;20040;-84
2023/03/14 01:19:53;;;;;;;0.40;0.40;;;9.70;99.90;;;;;;4959878;28;20042;-80
2023/03/14 01:22:21;;;;;;;0.60;0.60;;;9.70;99.90;;;;;;4951984;28;20039;-82
2023/03/14 01:24:46;;;;;;;0.65;0.65;;;9.80;99.90;;;;;;4962561;28;20145;-83
2023/03/14 01:27:12;;;;;;;;;;;9.90;99.90;;;;;;4962480;28;20043;-80
2023/03/14 01:29:38;;;;;;;0.30;0.30;;;10.00;99.90;;;;;;4957357;28;20406;-82
2023/03/14 01:32:04;;;;;;;0.40;0.40;;;10.10;99.90;;;;;;4945926;28;20429;-85
2023/03/14 01:34:30;;;;;;;0.47;0.47;;;10.10;99.90;;;;;;4959888;28;20081;-81
2023/03/14 01:36:55;;;;;;;0.40;0.40;;;10.20;99.90;;;;;;4944009;28;20043;-82
2023/03/14 01:39:21;;;;;;;0.40;0.40;;;10.20;99.90;;;;;;4947701;28;20496;-81
2023/03/14 01:41:47;;;;;;;0.40;0.40;;;10.20;99.90;;;;;;4963726;28;20151;-82
2023/03/14 01:44:13;;;;;;;8.70;1.13;;;10.20;99.90;;;;;;4961143;28;20136;-83
2023/03/14 01:46:40;;;;;;;;;;;10.30;99.90;;;;;;4961809;28;20483;-83
2023/03/14 01:49:14;;;;;;;0.50;0.50;;;10.20;99.90;;;;;;4960138;28;20025;-82
2023/03/14 01:52:12;;;;;;;0.38;0.38;;;10.30;99.90;;;;;;4962167;28;20056;-83
2023/03/14 01:54:51;;;;;;;0.43;0.43;;;10.30;99.90;;;;;;4945860;28;20475;-82
2023/03/14 01:57:29;;;;;;;0.40;0.40;;;10.30;99.90;;;;;;4945048;28;20142;-83
2023/03/14 02:00:14;;;;;;;0.45;0.45;;;10.30;99.90;;;;;;4974189;28;20437;-80
2023/03/14 02:02:44;;;;;;;3.63;1.60;;;10.30;99.90;;;;;;4946624;28;20054;-82
2023/03/14 02:05:11;;;;;;;2.25;0.77;;;10.30;99.90;;;;;;4962193;28;20125;-82
2023/03/14 02:07:53;;;;;;;0.50;0.50;;;10.30;99.90;;;;;;4959786;28;20381;-82
2023/03/14 02:10:21;;;;;;;0.30;0.30;;;10.30;99.90;;;;;;4964763;28;20051;-83
2023/03/14 02:12:48;;;;;;;0.40;0.40;;;10.20;99.90;;;;;;4963864;28;20133;-85
2023/03/14 02:15:15;;;;;;;0.38;0.38;;;10.20;99.90;;;;;;4963795;28;20057;-82
2023/03/14 02:17:43;;;;;;;0.40;0.40;;;10.10;99.90;;;;;;4964482;28;20047;-85
2023/03/14 02:20:30;;;;;;;6.80;0.88;;;10.10;99.90;;;;;;4950572;28;20045;-85
2023/03/14 02:22:56;;;;;;;0.35;0.35;;;10.10;99.90;;;;;;4957555;28;20548;-84
2023/03/14 02:25:47;;;;;;;0.60;0.60;;;10.00;99.90;;;;;;4932804;28;20145;-83
2023/03/14 02:28:14;;;;;;;0.30;0.30;;;10.00;99.90;;;;;;4964166;28;20042;-84
2023/03/14 02:30:40;;;;;;;0.57;0.40;;;9.90;99.90;;;;;;4963298;28;20117;-84
2023/03/14 02:33:19;;;;;;;0.40;0.40;;;9.90;99.90;;;;;;4952366;28;20496;-82
2023/03/14 02:35:58;;;;;;;0.50;0.50;;;9.80;99.90;;;;;;4960224;28;20047;-82
2023/03/14 02:38:49;;;;;;;0.60;0.60;;;9.80;99.90;;;;;;4949175;28;20058;-83
2023/03/14 02:41:16;;;;;;;0.40;0.40;;;9.80;99.90;;;;;;4948562;28;20043;-83
2023/03/14 02:43:41;;;;;;;0.40;0.40;;;9.80;99.90;;;;;;4971095;28;20053;-82
2023/03/14 02:46:12;;;;;;;0.40;0.40;;;9.80;99.90;;;;;;4950340;28;20388;-83
2023/03/14 02:49:06;;;;;;;0.40;0.40;;;9.70;99.90;;;;;;4955415;28;20042;-82
2023/03/14 02:51:33;;;;;;;3.25;1.10;;;9.70;99.90;;;;;;4965431;28;20774;-83
2023/03/14 02:53:59;;;;;;;0.50;0.50;;;9.60;99.90;;;;;;4961808;28;20047;-81
2023/03/14 02:56:24;;;;;;;0.40;0.40;;;9.50;99.90;;;;;;4949240;28;20042;-82
2023/03/14 02:58:50;;;;;;;0.50;0.50;;;9.50;99.90;;;;;;4964500;28;20047;-85
2023/03/14 03:01:16;;;;;;;0.30;0.30;;;9.50;99.90;;;;;;4947550;28;20130;-83
2023/03/14 03:03:42;;;;;;;0.80;0.80;;;9.40;99.90;;;;;;4944643;28;20031;-83
2023/03/14 03:06:07;;;;;;;0.50;0.50;;;9.40;99.90;;;;;;4931634;28;20051;-81
2023/03/14 03:08:33;;;;;;;1.52;1.45;;;9.40;99.90;;;;;;4963613;28;20047;-82
2023/03/14 03:10:59;;;;;;;0.43;0.43;;;9.40;99.90;;;;;;4968942;28;20105;-81
2023/03/14 03:13:25;;;;;;;0.75;0.75;;;9.40;99.90;;;;;;4961145;28;20046;-81
2023/03/14 03:15:50;;;;;;;0.85;0.85;;;9.30;99.90;;;;;;4946942;28;20043;-83
2023/03/14 03:18:16;;;;;;;0.60;0.60;;;9.30;99.90;;;;;;4964281;28;20039;-81
2023/03/14 03:20:42;;;;;;;0.40;0.40;;;9.20;99.90;;;;;;4959575;28;20040;-82
2023/03/14 03:23:08;;;;;;;0.40;0.40;;;9.20;99.90;;;;;;4962244;28;20108;-82
2023/03/14 03:25:33;;;;;;;0.80;0.80;;;9.10;99.90;;;;;;4963353;28;20041;-83
2023/03/14 03:28:00;;;;;;;0.40;0.40;;;9.10;99.90;;;;;;4963299;28;20551;-81
2023/03/14 03:30:26;;;;;;;0.47;0.47;;;9.00;99.90;;;;;;4949150;28;20047;-83
2023/03/14 03:32:52;;;;;;;0.60;0.60;;;9.00;99.90;;;;;;4963057;28;20051;-83
2023/03/14 03:35:17;;;;;;;0.60;0.60;;;8.90;99.90;;;;;;4947505;28;20039;-80
2023/03/14 03:37:43;;;;;;;0.43;0.43;;;8.80;99.90;;;;;;4962675;28;20054;-82
2023/03/14 03:40:09;;;;;;;0.73;0.73;;;8.70;99.90;;;;;;4932884;28;20047;-83
2023/03/14 03:42:35;;;;;;;;;;;8.70;99.90;;;;;;4963922;28;20440;-82
2023/03/14 03:45:01;;;;;;;0.80;0.80;;;8.60;99.90;;;;;;4963094;28;19933;-83
2023/03/14 03:47:27;;;;;;;0.43;0.43;;;8.60;99.90;;;;;;4930398;28;20054;-84
2023/03/14 03:49:53;;;;;;;0.60;0.60;;;8.60;99.90;;;;;;4963153;28;20054;-82
2023/03/14 03:52:20;;;;;;;0.60;0.60;;;8.60;99.90;;;;;;4929945;28;20050;-82
2023/03/14 03:54:46;;;;;;;0.60;0.60;;;8.60;99.90;;;;;;4931058;28;20050;-83
2023/03/14 03:57:11;;;;;;;0.52;0.52;;;8.60;99.90;;;;;;4947698;28;20061;-82
2023/03/14 03:59:39;;;;;;;0.40;0.40;;;8.70;99.90;;;;;;4931201;28;20066;-84
2023/03/14 04:02:05;;;;;;;0.50;0.50;;;8.70;99.90;;;;;;4963230;28;20437;-83
2023/03/14 04:04:31;;;;;;;0.47;0.47;;;8.80;99.90;;;;;;4976192;28;20118;-83
2023/03/14 04:06:57;;;;;;;0.40;0.40;;;8.70;99.90;;;;;;4947581;28;20126;-83
2023/03/14 04:09:22;;;;;;;0.40;0.40;;;8.80;99.90;;;;;;4949208;28;20108;-83
2023/03/14 04:11:48;;;;;;;1.77;0.77;;;8.70;99.90;;;;;;4941670;28;20038;-81
2023/03/14 04:14:14;;;;;;;0.60;0.60;;;8.70;99.90;;;;;;5031337;28;20047;-82
2023/03/14 04:16:40;;;;;;;0.50;0.50;;;8.70;99.90;;;;;;4946586;28;20072;-82
2023/03/14 04:19:07;;;;;;;0.60;0.60;;;8.70;99.90;;;;;;4948437;28;20122;-83
2023/03/14 04:21:33;;;;;;;0.93;0.93;;;8.70;99.90;;;;;;4962431;28;20039;-83
2023/03/14 04:23:59;;;;;;;1.55;1.17;;;8.80;99.90;;;;;;4970171;28;20081;-84
2023/03/14 04:26:27;;;;;;;0.60;0.60;;;8.80;99.90;;;;;;4964820;28;20464;-82
2023/03/14 04:28:52;;;;;;;0.80;0.80;;;8.80;99.90;;;;;;4937686;28;20063;-82
2023/03/14 04:31:22;;;;;;;0.50;0.50;;;8.70;99.90;;;;;;4961962;28;20050;-84
2023/03/14 04:33:48;;;;;;;0.50;0.50;;;8.70;99.90;;;;;;4946486;28;20047;-84
2023/03/14 04:36:14;;;;;;;0.52;0.52;;;8.70;99.90;;;;;;4944579;28;20507;-84
2023/03/14 04:38:40;;;;;;;0.50;0.50;;;8.70;99.90;;;;;;4962359;28;20133;-83
2023/03/14 04:41:06;;;;;;;1.45;1.38;;;8.70;99.90;;;;;;4961485;28;20125;-81
2023/03/14 04:43:32;;;;;;;1.20;1.17;;;8.60;99.90;;;;;;4973537;28;20038;-82
2023/03/14 04:45:59;;;;;;;0.40;0.40;;;8.60;99.90;;;;;;4943193;28;20043;-84
2023/03/14 04:48:26;;;;;;;0.50;0.50;;;8.60;99.90;;;;;;4961952;28;20043;-81
2023/03/14 04:50:51;;;;;;;0.60;0.60;;;8.60;99.90;;;;;;4963657;28;20121;-82
2023/03/14 04:53:18;;;;;;;0.52;0.52;;;8.60;99.90;;;;;;4960169;28;20133;-83
2023/03/14 04:55:52;;;;;;;0.50;0.50;;;8.60;99.90;;;;;;4961955;28;20074;-83
2023/03/14 04:58:18;;;;;;;0.45;0.45;;;8.60;99.90;;;;;;4942994;28;20047;-81
2023/03/14 05:00:45;;;;;;;0.35;0.35;;;8.60;99.90;;;;;;4966295;28;20055;-83
2023/03/14 05:03:10;;;;;;;0.50;0.50;;;8.50;99.90;;;;;;4964747;28;20042;-82
2023/03/14 05:05:37;;;;;;;0.77;0.77;;;8.50;99.90;;;;;;4933956;28;21227;-83
2023/03/14 05:08:03;;;;;;;0.70;0.70;;;8.50;99.90;;;;;;4936658;28;20060;-83
2023/03/14 05:10:29;;;;;;;0.50;0.50;;;8.50;99.90;;;;;;4948087;28;20039;-84
2023/03/14 05:12:54;;;;;;;0.40;0.40;;;8.50;99.90;;;;;;4943913;28;20150;-83
2023/03/14 05:15:20;;;;;;;0.70;0.70;;;8.50;99.90;;;;;;4930899;28;20133;-83
2023/03/14 05:17:46;;;;;;;6.90;2.63;;;8.50;99.90;;;;;;4962546;28;20047;-83
2023/03/14 05:20:12;;;;;;;0.60;0.60;;;8.50;99.90;;;;;;4958802;28;20520;-81
2023/03/14 05:22:39;;;;;;;0.50;0.50;;;8.40;99.90;;;;;;4948277;28;20122;-83
2023/03/14 05:25:05;;;;;;;0.50;0.50;;;8.40;99.90;;;;;;4961808;28;20049;-82
2023/03/14 05:27:32;;;;;;;0.55;0.55;;;8.40;99.90;;;;;;4944626;28;20470;-83
2023/03/14 05:29:57;;;;;;;;;;;8.40;99.90;;;;;;4946658;28;20506;-84
2023/03/14 05:32:23;;;;;;;0.70;0.70;;;8.40;99.90;;;;;;4931063;28;19918;-85
2023/03/14 05:34:49;;;;;;;0.50;0.50;;;8.50;99.90;;;;;;4963177;28;20609;-82
2023/03/14 05:37:14;;;;;;;0.82;0.82;;;8.40;99.90;;;;;;4951568;28;20089;-85
2023/03/14 05:39:40;;;;;;;0.77;0.77;;;8.40;99.90;;;;;;4944373;28;20039;-85
2023/03/14 05:42:06;;;;;;;0.65;0.65;;;8.30;99.90;;;;;;4946409;28;20563;-85
2023/03/14 05:44:31;;;;;;;0.82;0.82;;;8.30;99.90;;;;;;5034207;28;20042;-84
2023/03/14 05:46:57;;;;;;;0.90;0.90;;;8.40;99.90;;;;;;4975405;28;20031;-84
2023/03/14 05:49:23;;;;;;;1.27;1.27;;;8.40;99.90;;;;;;5034075;28;20046;-84
2023/03/14 05:51:48;;;;;;;0.50;0.50;;;8.40;99.90;;;;;;5037479;28;20108;-84
2023/03/14 05:54:14;;;;;;;0.50;0.50;;;8.40;99.90;;;;;;5032551;28;20047;-84
2023/03/14 05:56:40;;;;;;;0.60;0.60;;;8.40;99.90;;;;;;4946346;28;20043;-83
2023/03/14 05:59:08;;;;;;;0.55;0.55;;;8.40;99.90;;;;;;4978918;28;20044;-83
2023/03/14 06:01:34;;;;;;;0.45;0.45;;;8.30;99.90;;;;;;4959435;28;20061;-84
2023/03/14 06:04:00;;;;;;;0.40;0.40;;;8.30;99.90;;;;;;4929969;28;20043;-82
2023/03/14 06:06:25;;;;;;;0.40;0.40;;;8.40;99.90;;;;;;4947074;28;20043;-84
2023/03/14 06:08:51;;;;;;;0.60;0.60;;;8.30;99.90;;;;;;4950337;28;20368;-85
2023/03/14 06:11:17;;;;;;;0.40;0.40;;;8.30;99.90;;;;;;4971694;28;20049;-84
2023/03/14 06:13:42;;;;;;;0.50;0.50;;;8.40;99.90;;;;;;4963970;28;20488;-82
2023/03/14 06:16:08;;;;;;;0.40;0.40;;;8.40;99.90;;;;;;4962991;28;20100;-84
2023/03/14 06:18:34;;;;;;;0.50;0.50;;;8.40;99.90;;;;;;5033134;28;20086;-83
2023/03/14 06:21:00;;;;;;;1.48;0.85;;;8.40;99.90;;;;;;4948823;28;20569;-81
2023/03/14 06:23:26;;;;;;;0.50;0.50;;;8.40;99.90;;;;;;4972520;28;20038;-83
2023/03/14 06:25:51;;;;;;;0.40;0.40;;;8.40;99.90;;;;;;4967864;28;20047;-84
2023/03/14 06:28:17;;;;;;;0.50;0.50;;;8.40;99.90;;;;;;4965772;28;20043;-84
2023/03/14 06:30:43;;;;;;;0.50;0.50;;;8.30;99.90;;;;;;4962325;28;20122;-84
2023/03/14 06:33:09;;;;;;;0.55;0.55;;;7.90;99.90;;;;;;4951015;28;20035;-86
2023/03/14 06:35:34;;;;;;;0.57;0.57;;;7.40;99.90;;;;;;5032834;28;20565;-86
2023/03/14 06:38:00;;;;;;;0.45;0.45;;;7.00;99.90;;;;;;4944964;28;20066;-86
2023/03/14 06:40:26;;;;;;;0.55;0.55;;;6.70;99.90;;;;;;4948086;28;20476;-86
2023/03/14 06:42:51;;;;;;;0.63;0.63;;;6.70;99.90;;;;;;4949781;28;20125;-86
2023/03/14 06:45:17;;;;;;;0.55;0.55;;;6.30;99.90;;;;;;4966129;28;20066;-85
2023/03/14 06:47:43;;;;;;;0.60;0.60;;;6.10;99.90;;;;;;4967727;28;20047;-85
2023/03/14 06:50:10;;;;;;;0.50;0.50;;;6.00;99.90;;;;;;4947402;28;20455;-85
2023/03/14 06:52:36;;;;;;;0.60;0.60;;;5.80;99.90;;;;;;4964636;28;20043;-85
2023/03/14 06:55:01;;;;;;;0.55;0.55;;;5.50;99.90;;;;;;4959673;28;20483;-88
2023/03/14 06:57:27;;;;;;;0.50;0.50;;;5.60;99.90;;;;;;4964446;28;20051;-86
2023/03/14 06:59:53;;;;;;;0.65;0.65;;;5.00;99.90;;;;;;4934263;28;20081;-86
2023/03/14 07:02:18;;;;;;;0.70;0.70;;;4.80;99.90;;;;;;4963209;28;20047;-85
2023/03/14 07:04:44;;;;;;;0.50;0.50;;;4.60;99.90;;;;;;4963438;28;20076;-85
2023/03/14 07:07:11;;;;;;;0.60;0.60;;;4.60;99.90;;;;;;4962562;28;20415;-85
2023/03/14 07:09:37;;;;;;;0.57;0.57;;;4.40;99.90;;;;;;4959131;28;20061;-84
2023/03/14 07:12:04;;;;;;;0.60;0.60;;;4.30;99.90;;;;;;4964901;28;20035;-84
2023/03/14 07:14:30;;;;;;;0.57;0.57;;;4.20;99.90;;;;;;4964811;28;20091;-83
2023/03/14 07:16:55;;;;;;;0.60;0.60;;;4.10;99.90;;;;;;4962953;28;20529;-85
2023/03/14 07:19:21;;;;;;;0.68;0.68;;;4.40;99.90;;;;;;4964771;28;20046;-85
2023/03/14 07:21:47;;;;;;;0.50;0.50;;;3.80;99.90;;;;;;4957296;28;20077;-87
2023/03/14 07:24:13;;;;;;;0.60;0.60;;;3.70;99.90;;;;;;4951994;28;20606;-84
2023/03/14 07:26:38;;;;;;;0.70;0.70;;;4.30;99.90;;;;;;4943763;28;21285;-85
2023/03/14 07:29:04;;;;;;;0.60;0.60;;;3.60;99.90;;;;;;4955951;28;20069;-85
2023/03/14 07:31:30;;;;;;;0.70;0.70;;;4.50;99.90;;;;;;4933086;28;20400;-85
2023/03/14 07:33:56;;;;;;;0.75;0.75;;;3.60;99.90;;;;;;4952029;28;20085;-85
2023/03/14 07:36:21;;;;;;;0.70;0.70;;;4.00;99.90;;;;;;4965141;28;20503;-84
2023/03/14 07:38:47;;;;;;;0.60;0.60;;;3.50;99.90;;;;;;4918092;28;20073;-85
2023/03/14 07:41:14;;;;;;;0.60;0.60;;;4.30;99.90;;;;;;4950231;28;20046;-85
2023/03/14 07:43:40;;;;;;;0.70;0.70;;;3.50;99.90;;;;;;4965795;28;20035;-85
2023/03/14 07:46:06;;;;;;;0.60;0.60;;;4.40;99.90;;;;;;4964778;28;20046;-82
2023/03/14 07:48:32;;;;;;;0.70;0.70;;;3.60;99.90;;;;;;4968100;28;20100;-85
2023/03/14 07:50:57;;;;;;;;;;;3.50;99.90;;;;;;4950688;28;20043;-84
2023/03/14 07:53:24;;;;;;;0.60;0.60;;;3.50;99.90;;;;;;4967451;28;19971;-85
2023/03/14 07:55:51;;;;;;;0.80;0.80;;;3.50;99.90;;;;;;4974584;28;20046;-82
2023/03/14 07:58:17;;;;;;;0.52;0.52;;;3.40;99.90;;;;;;4949921;28;20042;-84
2023/03/14 08:00:43;;;;;;;0.68;0.68;;;3.50;99.90;;;;;;4949585;28;20042;-83
2023/03/14 08:03:09;;;;;;;0.70;0.70;;;3.50;99.90;;;;;;4949173;28;20510;-81
2023/03/14 08:05:37;;;;;;;0.63;0.63;;;3.50;99.90;;;;;;4949186;28;20411;-84
2023/03/14 08:08:03;;;;;;;0.50;0.50;;;3.60;99.90;;;;;;4963053;28;20448;-83
2023/03/14 08:10:29;;;;;;;0.65;0.65;;;3.70;99.90;;;;;;4968482;28;20122;-85
2023/03/14 08:12:57;;;;;;;0.60;0.60;;;3.90;99.90;;;;;;4948686;28;20142;-87
2023/03/14 08:15:24;;;;;;;0.68;0.68;;;3.70;99.90;;;;;;4932649;28;20385;-85
2023/03/14 08:17:51;;;;;;;0.60;0.60;;;3.70;99.90;;;;;;4966396;28;20169;-87
2023/03/14 08:20:17;;;;;;;0.70;0.70;;;3.80;99.90;;;;;;4942517;28;20100;-89
2023/03/14 08:22:43;;;;;;;0.60;0.60;;;4.00;99.90;;;;;;4949361;28;20053;-85
2023/03/14 08:25:10;;;;;;;0.68;0.68;;;4.00;99.90;;;;;;4960910;28;20471;-81
2023/03/14 08:27:38;;;;;;;0.60;0.60;;;4.10;99.90;;;;;;4965097;28;20549;-81
2023/03/14 08:30:06;;;;;;;0.73;0.73;;;4.20;99.90;;;;;;4975625;28;20575;-81
2023/03/14 08:32:32;;;;;;;0.60;0.60;;;4.10;99.90;;;;;;4971696;28;20042;-80
2023/03/14 08:34:57;;;;;;;0.70;0.70;;;4.10;99.90;;;;;;4959260;28;20039;-82
2023/03/14 08:37:24;;;;;;;0.70;0.70;;;4.20;99.90;;;;;;4962463;28;20061;-82
2023/03/14 08:39:51;;;;;;;0.70;0.70;;;4.30;99.90;;;;;;4964398;28;20346;-83
2023/03/14 08:42:17;;;;;;;0.57;0.57;;;4.30;99.90;;;;;;4960026;28;20038;-82
2023/03/14 08:44:43;;;;;;;0.60;0.60;;;4.40;99.90;;;;;;4951477;28;20049;-81
2023/03/14 08:47:09;;;;;;;0.60;0.60;;;4.50;99.90;;;;;;4950164;28;20477;-82
2023/03/14 08:49:35;;;;;;;0.65;0.65;;;4.50;99.90;;;;;;4965186;28;20035;-82
2023/03/14 08:52:03;;;;;;;0.50;0.50;;;4.50;99.90;;;;;;4960950;28;20122;-82
2023/03/14 08:54:29;;;;;;;0.50;0.50;;;4.60;99.90;;;;;;4957819;28;20071;-81
2023/03/14 08:56:54;;;;;;;0.60;0.60;;;4.70;99.90;;;;;;4951382;28;20042;-80
2023/03/14 08:59:20;;;;;;;0.63;0.63;;;4.80;99.90;;;;;;4933637;28;20038;-80
2023/03/14 09:01:46;;;;;;;0.60;0.60;;;4.90;99.90;;;;;;4952072;28;20545;-81
2023/03/14 09:04:12;;;;;;;0.60;0.60;;;5.00;99.90;;;;;;4967399;28;20035;-81
2023/03/14 09:06:37;;;;;;;0.55;0.55;;;5.40;99.90;;;;;;4947836;28;20047;-82
2023/03/14 09:09:03;;;;;;;0.65;0.65;;;5.30;99.90;;;;;;4962005;28;20088;-82
2023/03/14 09:11:29;;;;;;;0.60;0.60;;;5.40;99.90;;;;;;4968782;28;20059;-81
2023/03/14 09:13:54;;;;;;;0.70;0.70;;;5.40;99.90;;;;;;4966761;28;20052;-81
2023/03/14 09:16:26;;;;;;;0.60;0.60;;;5.50;99.90;;;;;;4965089;28;20082;-82
2023/03/14 09:18:59;;;;;;;0.50;0.50;;;6.20;99.90;;;;;;4947593;28;20047;-81
2023/03/14 09:21:25;;;;;;;0.43;0.43;;;5.80;99.90;;;;;;4948850;28;20036;-81
2023/03/14 09:23:51;;;;;;;0.60;0.60;;;5.90;99.90;;;;;;4945631;28;20050;-81
2023/03/14 09:26:17;;;;;;;0.50;0.50;;;5.80;99.90;;;;;;4961271;28;20031;-82
2023/03/14 09:28:43;;;;;;;0.60;0.60;;;5.80;99.90;;;;;;4965728;28;20099;-81
2023/03/14 09:31:10;;;;;;;0.50;0.50;;;5.70;99.90;;;;;;4955879;28;20133;-82
2023/03/14 09:33:36;;;;;;;0.50;0.50;;;5.60;99.90;;;;;;4961915;28;20053;-82
2023/03/14 09:36:02;;;;;;;0.60;0.60;;;5.60;99.90;;;;;;4959816;28;20079;-82
2023/03/14 09:38:28;;;;;;;0.47;0.47;;;5.50;99.90;;;;;;4953371;28;20396;-82
2023/03/14 09:40:55;;;;;;;0.50;0.50;;;5.50;99.90;;;;;;4944619;28;20042;-82
2023/03/14 09:43:22;;;;;;;0.50;0.50;;;5.50;99.90;;;;;;4966628;28;20468;-82
2023/03/14 09:45:50;;;;;;;0.50;0.50;;;5.60;99.90;;;;;;4965346;28;20097;-82
2023/03/14 09:48:21;;;;;;;1.17;1.17;;;5.70;99.90;;;;;;4962838;28;20066;-82
2023/03/14 09:50:54;;;;;;;0.45;0.45;;;5.90;99.90;;;;;;4960709;28;20047;-82
2023/03/14 09:53:45;;;;;;;0.47;0.47;;;5.80;99.90;;;;;;4949027;28;20054;-81
2023/03/14 09:56:22;;;;;;;13.68;1.02;;;5.90;99.90;;;;;;4952150;28;20053;-82
2023/03/14 09:58:55;;;;;;;0.50;0.50;;;6.00;99.90;;;;;;4960762;28;20388;-82
2023/03/14 10:01:26;;;;;;;0.60;0.60;;;6.00;99.90;;;;;;4956035;28;20412;-81
2023/03/14 10:03:55;;;;;;;0.50;0.50;;;6.00;99.90;;;;;;4947004;28;20610;-82
2023/03/14 10:06:25;;;;;;;2.20;2.10;;;6.00;99.90;;;;;;4957943;28;20050;-81
2023/03/14 10:08:53;;;;;;;0.40;0.40;;;6.00;99.90;;;;;;4969735;28;20418;-82
2023/03/14 10:11:20;;;;;;;0.40;0.40;;;6.30;99.90;;;;;;4963337;28;20041;-82
2023/03/14 10:14:03;;;;;;;0.55;0.55;;;6.10;99.90;;;;;;4944734;28;20185;-81
2023/03/14 10:16:40;;;;;;;0.52;0.52;;;6.20;99.90;;;;;;4965144;28;20042;-81
2023/03/14 10:19:11;;;;;;;0.45;0.45;;;6.20;99.90;;;;;;4953061;28;20055;-82
2023/03/14 10:21:49;;;;;;;0.50;0.50;;;6.20;99.90;;;;;;4954679;28;20158;-81
2023/03/14 10:24:20;;;;;;;0.50;0.50;;;6.30;99.90;;;;;;4960976;28;20046;-82
2023/03/14 10:26:53;;;;;;;0.60;0.60;;;6.60;99.90;;;;;;4956054;28;20051;-82
2023/03/14 10:29:19;;;;;;;0.57;0.57;;;6.40;99.90;;;;;;4960820;28;20074;-83
2023/03/14 10:31:46;;;;;;;;;;;6.30;99.90;;;;;;4950249;28;20054;-81
2023/03/14 10:34:16;;;;;;;0.40;0.40;;;6.10;99.90;;;;;;4967182;28;19922;-82
2023/03/14 10:36:42;;;;;;;1.33;1.08;;;6.10;99.90;;;;;;4965020;28;20062;-82
2023/03/14 10:39:28;;;;;;;0.52;0.52;;;6.10;99.90;;;;;;4966149;28;20523;-82
2023/03/14 10:42:07;;;;;;;0.75;0.75;;;6.10;99.90;;;;;;4964633;28;21365;-81
2023/03/14 10:44:35;;;;;;;0.60;0.60;;;6.10;99.90;;;;;;4967111;28;20499;-83
2023/03/14 10:47:03;;;;;;;0.63;0.63;;;6.10;99.90;;;;;;4973752;28;20056;-82
2023/03/14 10:49:33;;;;;;;0.60;0.60;;;6.30;99.90;;;;;;4956811;28;20078;-82
2023/03/14 10:52:22;;;;;;;0.57;0.57;;;6.60;99.90;;;;;;4967696;28;20104;-80
2023/03/14 10:54:54;;;;;;;0.60;0.60;;;6.70;99.90;;;;;;4965330;28;20054;-81
2023/03/14 10:57:21;;;;;;;0.50;0.50;;;6.60;99.90;;;;;;4949252;28;20108;-81
2023/03/14 10:59:48;;;;;;;0.50;0.50;;;6.40;99.90;;;;;;4983423;28;20456;-81
2023/03/14 11:02:49;;;;;;;0.50;0.50;;;6.30;99.90;;;;;;4953725;28;20152;-82
2023/03/14 11:05:38;;;;;;;0.60;0.60;;;6.20;99.90;;;;;;4959615;28;20056;-82
2023/03/14 11:08:14;;;;;;;0.55;0.55;;;6.10;99.90;;;;;;4987792;28;20078;-81
2023/03/14 11:10:43;;;;;;;0.50;0.50;;;6.00;99.90;;;;;;4950868;28;20100;-82
2023/03/14 11:13:40;;;;;;;0.40;0.40;;;6.00;99.90;;;;;;4964195;28;20055;-81
2023/03/14 11:16:15;;;;;;;0.40;0.40;;;6.10;99.90;;;;;;4958327;28;20104;-81
2023/03/14 11:18:47;;;;;;;0.50;0.50;;;6.30;99.90;;;;;;4969571;28;20388;-82
2023/03/14 11:21:34;;;;;;;0.70;0.70;;;6.40;99.90;;;;;;4963611;28;20045;-82
2023/03/14 11:24:11;;;;;;;0.80;0.80;;;6.30;99.90;;;;;;4966705;28;20053;-82
2023/03/14 11:27:01;;;;;;;0.50;0.50;;;6.20;99.90;;;;;;4967341;28;20500;-81
2023/03/14 11:29:39;;;;;;;0.60;0.60;;;6.00;99.90;;;;;;4968281;28;20054;-82
2023/03/14 11:32:18;;;;;;;0.45;0.45;;;6.10;99.90;;;;;;4951655;28;20116;-81
2023/03/14 11:34:54;;;;;;;0.60;0.60;;;6.20;99.90;;;;;;4964022;28;20051;-82
2023/03/14 11:37:26;;;;;;;0.60;0.60;;;6.40;99.90;;;;;;4963968;28;20059;-81
2023/03/14 11:40:00;;;;;;;0.60;0.60;;;6.50;99.90;;;;;;4958336;28;20055;-81
2023/03/14 11:42:26;;;;;;;0.60;0.60;;;6.40;99.90;;;;;;4974087;28;20057;-81
2023/03/14 11:44:54;;;;;;;0.60;0.60;;;6.40;99.90;;;;;;4967135;28;20136;-80
2023/03/14 11:47:34;;;;;;;0.50;0.50;;;6.50;99.90;;;;;;4943387;28;20096;-81
2023/03/14 11:50:21;;;;;;;0.60;0.60;;;6.90;99.90;;;;;;4967372;28;20121;-81
2023/03/14 11:53:03;;;;;;;0.43;0.43;;;6.60;99.90;;;;;;4966953;28;20043;-81
2023/03/14 11:55:33;;;;;;;0.38;0.38;;;6.60;99.90;;;;;;4966892;28;20118;-80
2023/03/14 11:58:20;;;;;;;0.60;0.60;;;6.70;99.90;;;;;;4964104;28;20059;-82
2023/03/14 12:00:48;;;;;;;0.60;0.60;;;6.80;99.90;;;;;;4961610;28;20100;-81
2023/03/14 12:03:35;;;;;;;0.50;0.50;;;7.00;99.90;;;;;;4968651;28;20099;-82
2023/03/14 12:06:19;;;;;;;2.30;1.05;;;7.10;99.90;;;;;;4961904;28;20560;-82
2023/03/14 12:08:57;;;;;;;1.05;1.05;;;7.10;99.90;;;;;;4961609;28;20039;-81
2023/03/14 12:11:44;;;;;;;0.50;0.50;;;7.00;99.90;;;;;;4972268;28;20045;-82
2023/03/14 12:14:32;;;;;;;0.60;0.60;;;7.00;99.90;;;;;;4966774;28;20047;-81
2023/03/14 12:17:19;;;;;;;0.50;0.50;;;7.00;99.90;;;;;;4963566;28;20510;-79
2023/03/14 12:19:47;;;;;;;0.60;0.60;;;6.90;99.90;;;;;;4988069;28;20059;-81
2023/03/14 12:22:18;;;;;;;0.40;0.40;;;6.70;99.90;;;;;;4967273;28;20361;-81
2023/03/14 12:24:49;;;;;;;1.58;0.95;;;6.60;99.90;;;;;;4961397;28;20575;-81
2023/03/14 12:27:54;;;;;;;0.50;0.50;;;6.60;99.90;;;;;;4967504;28;20515;-81
2023/03/14 12:30:40;;;;;;;0.43;0.43;;;6.50;99.90;;;;;;4943595;28;20047;-80
2023/03/14 12:33:08;;;;;;;0.40;0.40;;;6.40;99.90;;;;;;4964435;28;20047;-81
2023/03/14 12:35:52;;;;;;;0.50;0.50;;;6.30;99.90;;;;;;4963504;28;20047;-80
2023/03/14 12:38:36;;;;;;;0.52;0.52;;;6.30;99.90;;;;;;4949439;28;20043;-82
2023/03/14 12:41:27;;;;;;;0.50;0.50;;;6.30;99.90;;;;;;4981733;28;20043;-81
2023/03/14 12:43:53;;;;;;;0.55;0.55;;;6.30;99.90;;;;;;4965761;28;20042;-80
2023/03/14 12:46:27;;;;;;;0.50;0.50;;;6.40;99.90;;;;;;4964666;28;20115;-80
2023/03/14 12:49:02;;;;;;;0.55;0.55;;;6.30;99.90;;;;;;4964612;28;20051;-81
2023/03/14 12:51:35;;;;;;;0.50;0.50;;;6.30;99.90;;;;;;4952476;28;20547;-82
2023/03/14 12:54:39;;;;;;;0.70;0.70;;;6.30;99.90;;;;;;4962099;28;20046;-82
2023/03/14 12:57:20;;;;;;;1.52;0.68;;;6.30;99.90;;;;;;4886635;28;20082;-81
2023/03/14 12:59:55;;;;;;;0.60;0.60;;;6.10;99.90;;;;;;4891995;28;20056;-82
2023/03/14 13:02:26;;;;;;;0.60;0.60;;;6.00;99.90;;;;;;4942040;28;20054;-82
2023/03/14 13:05:05;;;;;;;0.70;0.70;;;5.90;99.90;;;;;;4968082;28;20057;-80
2023/03/14 13:08:05;;;;;;;0.45;0.45;;;6.00;99.60;;;;;;4966159;28;20117;-81
2023/03/14 13:10:40;;;;;;;0.70;0.70;;;6.20;98.60;;;;;;4991477;28;20122;-82